sensor_id;sensor_type;location;lat;lon;timestamp;P1;durP1;ratioP1;P2;durP2;ratioP2
40691;SDS011;26377;53.344;14.886;2022-10-31T00:01:32;36.20;;;18.02;;
40691;SDS011;26377;53.344;14.886;2022-10-31T00:04:00;50.17;;;19.02;;
40691;SDS011;26377;53.344;14.886;2022-10-31T00:06:29;65.83;;;21.05;;
40691;SDS011;26377;53.344;14.886;2022-10-31T00:09:00;49.67;;;21.70;;
40691;SDS011;26377;53.344;14.886;2022-10-31T00:11:30;63.75;;;27.42;;
40691;SDS011;26377;53.344;14.886;2022-10-31T00:13:57;63.20;;;28.05;;
40691;SDS011;26377;53.344;14.886;2022-10-31T00:16:25;46.33;;;26.73;;
40691;SDS011;26377;53.344;14.886;2022-10-31T00:18:56;56.92;;;25.72;;
40691;SDS011;26377;53.344;14.886;2022-10-31T00:21:27;51.20;;;26.10;;
40691;SDS011;26377;53.344;14.886;2022-10-31T00:23:57;41.23;;;23.47;;
40691;SDS011;26377;53.344;14.886;2022-10-31T00:26:29;33.35;;;21.30;;
40691;SDS011;26377;53.344;14.886;2022-10-31T00:28:58;46.33;;;23.50;;
40691;SDS011;26377;53.344;14.886;2022-10-31T00:31:28;47.00;;;22.32;;
40691;SDS011;26377;53.344;14.886;2022-10-31T00:33:57;49.15;;;22.98;;
40691;SDS011;26377;53.344;14.886;2022-10-31T00:36:25;43.95;;;23.27;;
40691;SDS011;26377;53.344;14.886;2022-10-31T00:38:52;59.83;;;23.67;;
40691;SDS011;26377;53.344;14.886;2022-10-31T00:41:21;62.53;;;26.20;;
40691;SDS011;26377;53.344;14.886;2022-10-31T00:43:48;66.22;;;25.20;;
40691;SDS011;26377;53.344;14.886;2022-10-31T00:46:15;50.30;;;24.27;;
40691;SDS011;26377;53.344;14.886;2022-10-31T00:48:47;58.85;;;24.50;;
40691;SDS011;26377;53.344;14.886;2022-10-31T00:51:14;54.60;;;24.50;;
40691;SDS011;26377;53.344;14.886;2022-10-31T00:53:42;79.32;;;28.77;;
40691;SDS011;26377;53.344;14.886;2022-10-31T00:56:10;67.67;;;24.40;;
40691;SDS011;26377;53.344;14.886;2022-10-31T00:58:39;59.85;;;24.70;;
40691;SDS011;26377;53.344;14.886;2022-10-31T01:01:09;67.78;;;25.55;;
40691;SDS011;26377;53.344;14.886;2022-10-31T01:03:39;70.15;;;25.23;;
40691;SDS011;26377;53.344;14.886;2022-10-31T01:06:09;54.05;;;24.98;;
40691;SDS011;26377;53.344;14.886;2022-10-31T01:08:38;69.40;;;25.35;;
40691;SDS011;26377;53.344;14.886;2022-10-31T01:11:16;73.15;;;23.83;;
40691;SDS011;26377;53.344;14.886;2022-10-31T01:13:44;48.90;;;22.87;;
40691;SDS011;26377;53.344;14.886;2022-10-31T01:16:15;54.53;;;25.48;;
40691;SDS011;26377;53.344;14.886;2022-10-31T01:18:45;76.15;;;24.77;;
40691;SDS011;26377;53.344;14.886;2022-10-31T01:21:17;58.98;;;26.52;;
40691;SDS011;26377;53.344;14.886;2022-10-31T01:23:50;52.88;;;25.10;;
40691;SDS011;26377;53.344;14.886;2022-10-31T01:26:21;54.85;;;25.15;;
40691;SDS011;26377;53.344;14.886;2022-10-31T01:28:56;48.15;;;24.90;;
40691;SDS011;26377;53.344;14.886;2022-10-31T01:31:29;76.97;;;25.40;;
40691;SDS011;26377;53.344;14.886;2022-10-31T01:34:02;67.22;;;27.00;;
40691;SDS011;26377;53.344;14.886;2022-10-31T01:36:36;65.03;;;24.40;;
40691;SDS011;26377;53.344;14.886;2022-10-31T01:39:06;37.20;;;23.35;;
40691;SDS011;26377;53.344;14.886;2022-10-31T01:41:43;45.23;;;21.70;;
40691;SDS011;26377;53.344;14.886;2022-10-31T01:49:40;126.95;;;20.72;;
40691;SDS011;26377;53.344;14.886;2022-10-31T01:52:24;95.70;;;17.60;;
40691;SDS011;26377;53.344;14.886;2022-10-31T01:55:07;66.60;;;16.27;;
40691;SDS011;26377;53.344;14.886;2022-10-31T01:57:45;146.15;;;18.75;;
40691;SDS011;26377;53.344;14.886;2022-10-31T02:00:17;114.85;;;20.85;;
40691;SDS011;26377;53.344;14.886;2022-10-31T02:02:46;150.27;;;24.43;;
40691;SDS011;26377;53.344;14.886;2022-10-31T02:05:21;114.55;;;26.07;;
40691;SDS011;26377;53.344;14.886;2022-10-31T02:07:53;170.68;;;25.30;;
40691;SDS011;26377;53.344;14.886;2022-10-31T02:10:32;109.48;;;25.02;;
40691;SDS011;26377;53.344;14.886;2022-10-31T02:13:03;121.60;;;24.20;;
40691;SDS011;26377;53.344;14.886;2022-10-31T02:15:35;127.67;;;23.80;;
40691;SDS011;26377;53.344;14.886;2022-10-31T02:18:04;103.65;;;21.68;;
40691;SDS011;26377;53.344;14.886;2022-10-31T02:20:39;60.98;;;21.75;;
40691;SDS011;26377;53.344;14.886;2022-10-31T02:29:27;81.63;;;20.15;;
40691;SDS011;26377;53.344;14.886;2022-10-31T02:35:19;105.27;;;22.57;;
40691;SDS011;26377;53.344;14.886;2022-10-31T02:46:32;95.10;;;20.90;;
40691;SDS011;26377;53.344;14.886;2022-10-31T02:49:06;84.75;;;21.60;;
40691;SDS011;26377;53.344;14.886;2022-10-31T02:51:38;65.25;;;19.95;;
40691;SDS011;26377;53.344;14.886;2022-10-31T02:54:15;79.37;;;20.17;;
40691;SDS011;26377;53.344;14.886;2022-10-31T02:56:50;73.15;;;20.05;;
40691;SDS011;26377;53.344;14.886;2022-10-31T02:59:21;70.10;;;20.35;;
40691;SDS011;26377;53.344;14.886;2022-10-31T03:10:52;42.53;;;16.00;;
40691;SDS011;26377;53.344;14.886;2022-10-31T03:21:53;59.03;;;17.95;;
40691;SDS011;26377;53.344;14.886;2022-10-31T03:27:01;61.70;;;18.05;;
40691;SDS011;26377;53.344;14.886;2022-10-31T03:29:30;70.65;;;18.55;;
40691;SDS011;26377;53.344;14.886;2022-10-31T03:32:08;113.37;;;21.12;;
40691;SDS011;26377;53.344;14.886;2022-10-31T03:34:39;71.90;;;22.10;;
40691;SDS011;26377;53.344;14.886;2022-10-31T03:37:11;63.27;;;21.70;;
40691;SDS011;26377;53.344;14.886;2022-10-31T03:39:42;86.08;;;20.17;;
40691;SDS011;26377;53.344;14.886;2022-10-31T03:42:16;105.03;;;19.73;;
40691;SDS011;26377;53.344;14.886;2022-10-31T03:45:03;119.08;;;19.80;;
40691;SDS011;26377;53.344;14.886;2022-10-31T03:47:36;109.63;;;19.70;;
40691;SDS011;26377;53.344;14.886;2022-10-31T03:50:07;86.42;;;18.60;;
40691;SDS011;26377;53.344;14.886;2022-10-31T03:55:33;61.55;;;18.82;;
40691;SDS011;26377;53.344;14.886;2022-10-31T03:58:12;88.17;;;19.35;;
40691;SDS011;26377;53.344;14.886;2022-10-31T04:00:46;58.55;;;18.57;;
40691;SDS011;26377;53.344;14.886;2022-10-31T04:03:22;49.15;;;17.77;;
40691;SDS011;26377;53.344;14.886;2022-10-31T04:05:55;44.77;;;16.50;;
40691;SDS011;26377;53.344;14.886;2022-10-31T04:08:31;39.60;;;15.98;;
40691;SDS011;26377;53.344;14.886;2022-10-31T04:11:03;37.85;;;16.25;;
40691;SDS011;26377;53.344;14.886;2022-10-31T04:13:32;49.20;;;18.05;;
40691;SDS011;26377;53.344;14.886;2022-10-31T04:16:04;85.53;;;20.97;;
40691;SDS011;26377;53.344;14.886;2022-10-31T04:18:33;97.90;;;20.57;;
40691;SDS011;26377;53.344;14.886;2022-10-31T04:21:04;75.08;;;19.85;;
40691;SDS011;26377;53.344;14.886;2022-10-31T04:23:33;70.70;;;20.40;;
40691;SDS011;26377;53.344;14.886;2022-10-31T04:26:04;78.37;;;20.02;;
40691;SDS011;26377;53.344;14.886;2022-10-31T04:28:31;85.90;;;19.90;;
40691;SDS011;26377;53.344;14.886;2022-10-31T04:31:01;73.52;;;19.77;;
40691;SDS011;26377;53.344;14.886;2022-10-31T04:33:30;64.42;;;18.20;;
40691;SDS011;26377;53.344;14.886;2022-10-31T04:36:01;64.70;;;17.20;;
40691;SDS011;26377;53.344;14.886;2022-10-31T04:38:28;82.08;;;17.60;;
40691;SDS011;26377;53.344;14.886;2022-10-31T04:40:55;80.07;;;17.27;;
40691;SDS011;26377;53.344;14.886;2022-10-31T04:43:42;71.72;;;16.07;;
40691;SDS011;26377;53.344;14.886;2022-10-31T04:46:10;58.70;;;16.60;;
40691;SDS011;26377;53.344;14.886;2022-10-31T04:48:39;47.67;;;14.93;;
40691;SDS011;26377;53.344;14.886;2022-10-31T04:51:07;69.12;;;16.40;;
40691;SDS011;26377;53.344;14.886;2022-10-31T04:53:34;56.05;;;17.65;;
40691;SDS011;26377;53.344;14.886;2022-10-31T04:56:03;90.80;;;20.60;;
40691;SDS011;26377;53.344;14.886;2022-10-31T04:58:36;64.60;;;18.87;;
40691;SDS011;26377;53.344;14.886;2022-10-31T05:01:05;70.70;;;20.23;;
40691;SDS011;26377;53.344;14.886;2022-10-31T05:03:34;56.77;;;19.57;;
40691;SDS011;26377;53.344;14.886;2022-10-31T05:06:02;55.70;;;19.05;;
40691;SDS011;26377;53.344;14.886;2022-10-31T05:08:29;48.28;;;20.10;;
40691;SDS011;26377;53.344;14.886;2022-10-31T05:11:00;70.15;;;18.98;;
40691;SDS011;26377;53.344;14.886;2022-10-31T05:13:29;66.20;;;19.62;;
40691;SDS011;26377;53.344;14.886;2022-10-31T05:16:12;56.40;;;19.35;;
40691;SDS011;26377;53.344;14.886;2022-10-31T05:18:45;41.98;;;18.90;;
40691;SDS011;26377;53.344;14.886;2022-10-31T05:21:28;48.85;;;18.87;;
40691;SDS011;26377;53.344;14.886;2022-10-31T05:23:58;46.63;;;18.07;;
40691;SDS011;26377;53.344;14.886;2022-10-31T05:26:25;37.30;;;16.85;;
40691;SDS011;26377;53.344;14.886;2022-10-31T05:28:53;36.30;;;17.70;;
40691;SDS011;26377;53.344;14.886;2022-10-31T05:31:20;40.75;;;16.77;;
40691;SDS011;26377;53.344;14.886;2022-10-31T05:33:49;31.77;;;16.57;;
40691;SDS011;26377;53.344;14.886;2022-10-31T05:36:35;32.38;;;15.00;;
40691;SDS011;26377;53.344;14.886;2022-10-31T05:39:04;29.82;;;15.28;;
40691;SDS011;26377;53.344;14.886;2022-10-31T05:41:38;35.38;;;14.60;;
40691;SDS011;26377;53.344;14.886;2022-10-31T05:44:07;44.80;;;15.72;;
40691;SDS011;26377;53.344;14.886;2022-10-31T05:46:36;37.95;;;17.17;;
40691;SDS011;26377;53.344;14.886;2022-10-31T05:49:21;43.98;;;17.37;;
40691;SDS011;26377;53.344;14.886;2022-10-31T05:52:07;37.48;;;17.10;;
40691;SDS011;26377;53.344;14.886;2022-10-31T05:54:38;48.45;;;18.27;;
40691;SDS011;26377;53.344;14.886;2022-10-31T05:57:05;50.60;;;17.02;;
40691;SDS011;26377;53.344;14.886;2022-10-31T05:59:32;44.83;;;17.87;;
40691;SDS011;26377;53.344;14.886;2022-10-31T06:02:00;39.48;;;17.82;;
40691;SDS011;26377;53.344;14.886;2022-10-31T06:04:29;35.33;;;19.15;;
40691;SDS011;26377;53.344;14.886;2022-10-31T06:06:57;50.40;;;19.48;;
40691;SDS011;26377;53.344;14.886;2022-10-31T06:09:24;35.55;;;19.77;;
40691;SDS011;26377;53.344;14.886;2022-10-31T06:11:53;47.43;;;18.65;;
40691;SDS011;26377;53.344;14.886;2022-10-31T06:14:24;36.55;;;18.95;;
40691;SDS011;26377;53.344;14.886;2022-10-31T06:16:53;29.90;;;17.20;;
40691;SDS011;26377;53.344;14.886;2022-10-31T06:19:35;44.53;;;17.55;;
40691;SDS011;26377;53.344;14.886;2022-10-31T06:22:04;48.60;;;18.35;;
40691;SDS011;26377;53.344;14.886;2022-10-31T06:24:34;49.05;;;18.05;;
40691;SDS011;26377;53.344;14.886;2022-10-31T06:27:06;43.42;;;18.17;;
40691;SDS011;26377;53.344;14.886;2022-10-31T06:29:33;38.35;;;17.62;;
40691;SDS011;26377;53.344;14.886;2022-10-31T06:32:05;43.92;;;16.85;;
40691;SDS011;26377;53.344;14.886;2022-10-31T06:34:34;46.92;;;17.30;;
40691;SDS011;26377;53.344;14.886;2022-10-31T06:37:01;45.08;;;16.65;;
40691;SDS011;26377;53.344;14.886;2022-10-31T06:39:30;46.05;;;17.70;;
40691;SDS011;26377;53.344;14.886;2022-10-31T06:41:57;44.15;;;16.93;;
40691;SDS011;26377;53.344;14.886;2022-10-31T06:44:26;55.25;;;16.32;;
40691;SDS011;26377;53.344;14.886;2022-10-31T06:46:56;38.05;;;16.93;;
40691;SDS011;26377;53.344;14.886;2022-10-31T06:49:25;32.10;;;16.27;;
40691;SDS011;26377;53.344;14.886;2022-10-31T06:51:54;29.50;;;15.93;;
40691;SDS011;26377;53.344;14.886;2022-10-31T06:54:21;25.60;;;16.87;;
40691;SDS011;26377;53.344;14.886;2022-10-31T06:56:50;33.70;;;16.75;;
40691;SDS011;26377;53.344;14.886;2022-10-31T06:59:17;27.48;;;15.58;;
40691;SDS011;26377;53.344;14.886;2022-10-31T07:01:49;39.00;;;17.65;;
40691;SDS011;26377;53.344;14.886;2022-10-31T07:04:17;43.65;;;17.77;;
40691;SDS011;26377;53.344;14.886;2022-10-31T07:06:49;31.77;;;18.00;;
40691;SDS011;26377;53.344;14.886;2022-10-31T07:09:20;24.47;;;15.23;;
40691;SDS011;26377;53.344;14.886;2022-10-31T07:11:47;41.25;;;16.30;;
40691;SDS011;26377;53.344;14.886;2022-10-31T07:14:15;31.57;;;14.98;;
40691;SDS011;26377;53.344;14.886;2022-10-31T07:16:48;22.15;;;14.35;;
40691;SDS011;26377;53.344;14.886;2022-10-31T07:19:18;46.90;;;14.75;;
40691;SDS011;26377;53.344;14.886;2022-10-31T07:21:46;27.07;;;13.85;;
40691;SDS011;26377;53.344;14.886;2022-10-31T07:24:14;57.13;;;16.50;;
40691;SDS011;26377;53.344;14.886;2022-10-31T07:26:45;51.73;;;15.48;;
40691;SDS011;26377;53.344;14.886;2022-10-31T07:29:13;37.35;;;16.12;;
40691;SDS011;26377;53.344;14.886;2022-10-31T07:31:41;41.28;;;15.05;;
40691;SDS011;26377;53.344;14.886;2022-10-31T07:34:12;40.60;;;14.87;;
40691;SDS011;26377;53.344;14.886;2022-10-31T07:36:58;46.28;;;14.00;;
40691;SDS011;26377;53.344;14.886;2022-10-31T07:39:26;232.80;;;56.25;;
40691;SDS011;26377;53.344;14.886;2022-10-31T07:41:53;377.32;;;91.80;;
40691;SDS011;26377;53.344;14.886;2022-10-31T07:44:21;168.82;;;44.23;;
40691;SDS011;26377;53.344;14.886;2022-10-31T07:46:49;150.50;;;38.70;;
40691;SDS011;26377;53.344;14.886;2022-10-31T07:49:37;117.10;;;37.40;;
40691;SDS011;26377;53.344;14.886;2022-10-31T07:52:18;111.88;;;33.65;;
40691;SDS011;26377;53.344;14.886;2022-10-31T07:55:04;58.40;;;21.15;;
40691;SDS011;26377;53.344;14.886;2022-10-31T07:57:34;75.03;;;14.47;;
40691;SDS011;26377;53.344;14.886;2022-10-31T08:00:08;74.12;;;12.65;;
40691;SDS011;26377;53.344;14.886;2022-10-31T08:02:45;68.33;;;11.45;;
40691;SDS011;26377;53.344;14.886;2022-10-31T08:05:14;101.47;;;13.58;;
40691;SDS011;26377;53.344;14.886;2022-10-31T08:08:02;90.72;;;19.10;;
40691;SDS011;26377;53.344;14.886;2022-10-31T08:10:32;102.72;;;14.90;;
40691;SDS011;26377;53.344;14.886;2022-10-31T08:13:03;62.27;;;13.35;;
40691;SDS011;26377;53.344;14.886;2022-10-31T08:15:33;92.10;;;12.37;;
40691;SDS011;26377;53.344;14.886;2022-10-31T08:18:05;67.12;;;11.03;;
40691;SDS011;26377;53.344;14.886;2022-10-31T08:20:35;62.07;;;10.93;;
40691;SDS011;26377;53.344;14.886;2022-10-31T08:23:03;168.65;;;12.37;;
40691;SDS011;26377;53.344;14.886;2022-10-31T08:25:33;87.78;;;11.03;;
40691;SDS011;26377;53.344;14.886;2022-10-31T08:28:01;87.10;;;11.70;;
40691;SDS011;26377;53.344;14.886;2022-10-31T08:30:31;62.48;;;10.78;;
40691;SDS011;26377;53.344;14.886;2022-10-31T08:33:20;87.62;;;11.05;;
40691;SDS011;26377;53.344;14.886;2022-10-31T08:36:06;78.85;;;11.93;;
40691;SDS011;26377;53.344;14.886;2022-10-31T08:38:49;56.08;;;11.00;;
40691;SDS011;26377;53.344;14.886;2022-10-31T08:41:16;74.67;;;11.30;;
40691;SDS011;26377;53.344;14.886;2022-10-31T08:43:46;54.33;;;11.55;;
40691;SDS011;26377;53.344;14.886;2022-10-31T08:46:14;77.22;;;11.78;;
40691;SDS011;26377;53.344;14.886;2022-10-31T08:48:42;47.25;;;10.98;;
40691;SDS011;26377;53.344;14.886;2022-10-31T08:51:12;32.85;;;11.15;;
40691;SDS011;26377;53.344;14.886;2022-10-31T08:53:39;63.50;;;12.28;;
40691;SDS011;26377;53.344;14.886;2022-10-31T08:56:25;55.23;;;11.85;;
40691;SDS011;26377;53.344;14.886;2022-10-31T08:58:53;53.75;;;10.70;;
40691;SDS011;26377;53.344;14.886;2022-10-31T09:01:23;45.35;;;11.80;;
40691;SDS011;26377;53.344;14.886;2022-10-31T09:03:50;40.15;;;10.63;;
40691;SDS011;26377;53.344;14.886;2022-10-31T09:06:19;60.05;;;12.18;;
40691;SDS011;26377;53.344;14.886;2022-10-31T09:08:48;83.75;;;13.15;;
40691;SDS011;26377;53.344;14.886;2022-10-31T09:11:16;78.70;;;12.25;;
40691;SDS011;26377;53.344;14.886;2022-10-31T09:13:45;64.55;;;11.93;;
40691;SDS011;26377;53.344;14.886;2022-10-31T09:16:15;31.30;;;12.82;;
40691;SDS011;26377;53.344;14.886;2022-10-31T09:18:44;28.62;;;12.13;;
40691;SDS011;26377;53.344;14.886;2022-10-31T09:21:14;61.68;;;13.38;;
40691;SDS011;26377;53.344;14.886;2022-10-31T09:23:43;76.22;;;12.28;;
40691;SDS011;26377;53.344;14.886;2022-10-31T09:26:10;57.35;;;14.03;;
40691;SDS011;26377;53.344;14.886;2022-10-31T09:28:43;54.40;;;12.93;;
40691;SDS011;26377;53.344;14.886;2022-10-31T09:31:15;57.90;;;11.00;;
40691;SDS011;26377;53.344;14.886;2022-10-31T09:34:02;71.72;;;10.98;;
40691;SDS011;26377;53.344;14.886;2022-10-31T09:36:35;45.40;;;11.55;;
40691;SDS011;26377;53.344;14.886;2022-10-31T09:39:06;52.85;;;13.03;;
40691;SDS011;26377;53.344;14.886;2022-10-31T09:41:47;39.60;;;12.30;;
40691;SDS011;26377;53.344;14.886;2022-10-31T09:44:33;17.25;;;11.50;;
40691;SDS011;26377;53.344;14.886;2022-10-31T09:47:21;18.12;;;11.00;;
40691;SDS011;26377;53.344;14.886;2022-10-31T09:52:47;38.98;;;12.50;;
40691;SDS011;26377;53.344;14.886;2022-10-31T09:55:41;31.97;;;11.33;;
40691;SDS011;26377;53.344;14.886;2022-10-31T09:58:22;73.02;;;12.50;;
40691;SDS011;26377;53.344;14.886;2022-10-31T10:00:56;29.63;;;11.63;;
40691;SDS011;26377;53.344;14.886;2022-10-31T10:03:35;32.88;;;10.93;;
40691;SDS011;26377;53.344;14.886;2022-10-31T10:06:16;40.95;;;11.18;;
40691;SDS011;26377;53.344;14.886;2022-10-31T10:08:55;56.77;;;11.75;;
40691;SDS011;26377;53.344;14.886;2022-10-31T10:14:47;33.55;;;12.88;;
40691;SDS011;26377;53.344;14.886;2022-10-31T10:17:46;25.45;;;12.18;;
40691;SDS011;26377;53.344;14.886;2022-10-31T10:23:55;21.12;;;12.70;;
40691;SDS011;26377;53.344;14.886;2022-10-31T10:26:30;18.82;;;12.88;;
40691;SDS011;26377;53.344;14.886;2022-10-31T10:31:53;14.25;;;12.45;;
40691;SDS011;26377;53.344;14.886;2022-10-31T10:34:30;16.12;;;11.78;;
40691;SDS011;26377;53.344;14.886;2022-10-31T10:40:06;15.35;;;11.63;;
40691;SDS011;26377;53.344;14.886;2022-10-31T10:42:25;15.03;;;13.18;;
40691;SDS011;26377;53.344;14.886;2022-10-31T10:45:14;17.90;;;12.55;;
40691;SDS011;26377;53.344;14.886;2022-10-31T10:50:42;15.45;;;12.73;;
40691;SDS011;26377;53.344;14.886;2022-10-31T10:58:47;16.80;;;13.22;;
40691;SDS011;26377;53.344;14.886;2022-10-31T11:01:16;17.95;;;12.95;;
40691;SDS011;26377;53.344;14.886;2022-10-31T11:03:46;19.55;;;13.38;;
40691;SDS011;26377;53.344;14.886;2022-10-31T11:06:17;18.07;;;13.03;;
40691;SDS011;26377;53.344;14.886;2022-10-31T11:08:49;18.77;;;13.48;;
40691;SDS011;26377;53.344;14.886;2022-10-31T11:11:31;20.92;;;13.35;;
40691;SDS011;26377;53.344;14.886;2022-10-31T11:14:04;20.00;;;13.05;;
40691;SDS011;26377;53.344;14.886;2022-10-31T11:16:36;23.20;;;14.90;;
40691;SDS011;26377;53.344;14.886;2022-10-31T11:19:08;24.82;;;15.20;;
40691;SDS011;26377;53.344;14.886;2022-10-31T11:21:44;23.07;;;14.53;;
40691;SDS011;26377;53.344;14.886;2022-10-31T11:24:16;16.90;;;12.45;;
40691;SDS011;26377;53.344;14.886;2022-10-31T11:26:49;15.03;;;12.18;;
40691;SDS011;26377;53.344;14.886;2022-10-31T11:29:21;15.30;;;11.28;;
40691;SDS011;26377;53.344;14.886;2022-10-31T11:31:55;14.18;;;11.60;;
40691;SDS011;26377;53.344;14.886;2022-10-31T11:34:36;13.80;;;10.93;;
40691;SDS011;26377;53.344;14.886;2022-10-31T11:39:49;15.50;;;11.25;;
40691;SDS011;26377;53.344;14.886;2022-10-31T11:42:28;14.07;;;11.30;;
40691;SDS011;26377;53.344;14.886;2022-10-31T11:45:16;16.57;;;11.18;;
40691;SDS011;26377;53.344;14.886;2022-10-31T11:47:51;16.17;;;11.48;;
40691;SDS011;26377;53.344;14.886;2022-10-31T11:50:25;15.35;;;12.03;;
40691;SDS011;26377;53.344;14.886;2022-10-31T11:53:11;20.72;;;13.18;;
40691;SDS011;26377;53.344;14.886;2022-10-31T11:55:40;16.55;;;13.55;;
40691;SDS011;26377;53.344;14.886;2022-10-31T11:58:26;21.55;;;15.60;;
40691;SDS011;26377;53.344;14.886;2022-10-31T12:00:55;23.87;;;15.05;;
40691;SDS011;26377;53.344;14.886;2022-10-31T12:08:44;22.13;;;15.58;;
40691;SDS011;26377;53.344;14.886;2022-10-31T12:13:58;26.12;;;15.88;;
40691;SDS011;26377;53.344;14.886;2022-10-31T12:16:39;22.37;;;14.70;;
40691;SDS011;26377;53.344;14.886;2022-10-31T12:19:34;26.48;;;15.80;;
40691;SDS011;26377;53.344;14.886;2022-10-31T12:31:07;24.25;;;16.02;;
40691;SDS011;26377;53.344;14.886;2022-10-31T12:33:56;44.80;;;26.40;;
40691;SDS011;26377;53.344;14.886;2022-10-31T12:39:47;26.55;;;19.32;;
40691;SDS011;26377;53.344;14.886;2022-10-31T12:42:46;27.22;;;16.87;;
40691;SDS011;26377;53.344;14.886;2022-10-31T12:45:35;19.92;;;14.58;;
40691;SDS011;26377;53.344;14.886;2022-10-31T12:51:17;19.87;;;14.80;;
40691;SDS011;26377;53.344;14.886;2022-10-31T12:54:05;23.50;;;15.13;;
40691;SDS011;26377;53.344;14.886;2022-10-31T12:59:21;22.55;;;14.95;;
40691;SDS011;26377;53.344;14.886;2022-10-31T13:08:04;21.52;;;15.68;;
40691;SDS011;26377;53.344;14.886;2022-10-31T13:10:49;24.50;;;16.10;;
40691;SDS011;26377;53.344;14.886;2022-10-31T13:13:41;22.37;;;15.63;;
40691;SDS011;26377;53.344;14.886;2022-10-31T13:16:16;52.93;;;32.50;;
40691;SDS011;26377;53.344;14.886;2022-10-31T13:24:36;26.23;;;17.45;;
40691;SDS011;26377;53.344;14.886;2022-10-31T13:27:26;21.00;;;16.05;;
40691;SDS011;26377;53.344;14.886;2022-10-31T13:30:13;22.98;;;16.17;;
40691;SDS011;26377;53.344;14.886;2022-10-31T13:35:51;24.75;;;16.82;;
40691;SDS011;26377;53.344;14.886;2022-10-31T13:41:27;22.98;;;16.77;;
40691;SDS011;26377;53.344;14.886;2022-10-31T13:44:22;24.07;;;17.48;;
40691;SDS011;26377;53.344;14.886;2022-10-31T13:46:53;36.33;;;25.10;;
40691;SDS011;26377;53.344;14.886;2022-10-31T13:54:46;29.18;;;20.77;;
40691;SDS011;26377;53.344;14.886;2022-10-31T13:57:23;35.98;;;24.50;;
40691;SDS011;26377;53.344;14.886;2022-10-31T14:00:00;35.00;;;22.40;;
40691;SDS011;26377;53.344;14.886;2022-10-31T14:02:45;26.60;;;20.27;;
40691;SDS011;26377;53.344;14.886;2022-10-31T14:05:21;33.10;;;21.62;;
40691;SDS011;26377;53.344;14.886;2022-10-31T14:07:54;23.42;;;19.85;;
40691;SDS011;26377;53.344;14.886;2022-10-31T14:10:27;27.75;;;21.17;;
40691;SDS011;26377;53.344;14.886;2022-10-31T14:15:53;28.20;;;20.08;;
40691;SDS011;26377;53.344;14.886;2022-10-31T14:18:35;27.75;;;20.48;;
40691;SDS011;26377;53.344;14.886;2022-10-31T14:21:37;32.23;;;21.00;;
40691;SDS011;26377;53.344;14.886;2022-10-31T14:24:15;25.60;;;20.90;;
40691;SDS011;26377;53.344;14.886;2022-10-31T14:26:58;28.52;;;19.67;;
40691;SDS011;26377;53.344;14.886;2022-10-31T14:29:52;27.30;;;19.00;;
40691;SDS011;26377;53.344;14.886;2022-10-31T14:32:24;31.90;;;20.40;;
40691;SDS011;26377;53.344;14.886;2022-10-31T14:43:27;29.77;;;21.30;;
40691;SDS011;26377;53.344;14.886;2022-10-31T14:48:50;41.70;;;28.60;;
40691;SDS011;26377;53.344;14.886;2022-10-31T14:51:37;54.27;;;32.33;;
40691;SDS011;26377;53.344;14.886;2022-10-31T14:54:17;45.33;;;28.42;;
40691;SDS011;26377;53.344;14.886;2022-10-31T14:56:56;37.85;;;23.40;;
40691;SDS011;26377;53.344;14.886;2022-10-31T14:59:31;34.50;;;23.70;;
40691;SDS011;26377;53.344;14.886;2022-10-31T15:04:53;55.33;;;34.85;;
40691;SDS011;26377;53.344;14.886;2022-10-31T15:07:26;75.47;;;42.08;;
40691;SDS011;26377;53.344;14.886;2022-10-31T15:09:55;67.20;;;39.63;;
40691;SDS011;26377;53.344;14.886;2022-10-31T15:14:57;260.68;;;88.90;;
40691;SDS011;26377;53.344;14.886;2022-10-31T15:17:44;263.87;;;91.32;;
40691;SDS011;26377;53.344;14.886;2022-10-31T15:20:21;247.02;;;86.67;;
40691;SDS011;26377;53.344;14.886;2022-10-31T15:22:53;233.20;;;87.22;;
40691;SDS011;26377;53.344;14.886;2022-10-31T15:25:32;258.82;;;86.67;;
40691;SDS011;26377;53.344;14.886;2022-10-31T15:28:12;233.57;;;85.10;;
40691;SDS011;26377;53.344;14.886;2022-10-31T15:30:49;223.18;;;78.05;;
40691;SDS011;26377;53.344;14.886;2022-10-31T15:36:02;218.63;;;72.25;;
40691;SDS011;26377;53.344;14.886;2022-10-31T15:38:33;208.35;;;73.67;;
40691;SDS011;26377;53.344;14.886;2022-10-31T15:41:01;199.90;;;66.97;;
40691;SDS011;26377;53.344;14.886;2022-10-31T15:43:37;210.17;;;70.60;;
40691;SDS011;26377;53.344;14.886;2022-10-31T15:46:08;189.35;;;65.67;;
40691;SDS011;26377;53.344;14.886;2022-10-31T15:48:38;187.47;;;66.35;;
40691;SDS011;26377;53.344;14.886;2022-10-31T15:51:08;178.87;;;63.67;;
40691;SDS011;26377;53.344;14.886;2022-10-31T15:53:41;165.95;;;60.00;;
40691;SDS011;26377;53.344;14.886;2022-10-31T15:56:20;151.22;;;57.38;;
40691;SDS011;26377;53.344;14.886;2022-10-31T15:58:57;149.65;;;57.08;;
40691;SDS011;26377;53.344;14.886;2022-10-31T16:01:30;148.72;;;55.65;;
40691;SDS011;26377;53.344;14.886;2022-10-31T16:04:33;125.27;;;48.25;;
40691;SDS011;26377;53.344;14.886;2022-10-31T16:06:40;120.65;;;50.65;;
40691;SDS011;26377;53.344;14.886;2022-10-31T16:09:23;106.12;;;43.83;;
40691;SDS011;26377;53.344;14.886;2022-10-31T16:11:51;107.92;;;47.03;;
40691;SDS011;26377;53.344;14.886;2022-10-31T16:14:27;109.50;;;45.45;;
40691;SDS011;26377;53.344;14.886;2022-10-31T16:16:59;111.20;;;48.00;;
40691;SDS011;26377;53.344;14.886;2022-10-31T16:19:29;122.13;;;59.70;;
40691;SDS011;26377;53.344;14.886;2022-10-31T16:27:29;56.10;;;29.00;;
40691;SDS011;26377;53.344;14.886;2022-10-31T16:29:59;55.25;;;28.75;;
40691;SDS011;26377;53.344;14.886;2022-10-31T16:32:36;51.25;;;27.80;;
40691;SDS011;26377;53.344;14.886;2022-10-31T16:38:04;68.35;;;36.60;;
40691;SDS011;26377;53.344;14.886;2022-10-31T16:40:38;57.40;;;30.65;;
40691;SDS011;26377;53.344;14.886;2022-10-31T16:43:13;60.85;;;33.73;;
40691;SDS011;26377;53.344;14.886;2022-10-31T16:45:44;53.68;;;29.95;;
40691;SDS011;26377;53.344;14.886;2022-10-31T16:48:14;58.42;;;31.50;;
40691;SDS011;26377;53.344;14.886;2022-10-31T16:50:46;58.75;;;31.25;;
40691;SDS011;26377;53.344;14.886;2022-10-31T16:53:15;41.65;;;23.62;;
40691;SDS011;26377;53.344;14.886;2022-10-31T16:55:50;43.08;;;24.02;;
40691;SDS011;26377;53.344;14.886;2022-10-31T16:58:24;40.48;;;23.77;;
40691;SDS011;26377;53.344;14.886;2022-10-31T17:00:56;47.13;;;24.82;;
40691;SDS011;26377;53.344;14.886;2022-10-31T17:03:28;42.70;;;24.12;;
40691;SDS011;26377;53.344;14.886;2022-10-31T17:05:56;43.50;;;24.65;;
40691;SDS011;26377;53.344;14.886;2022-10-31T17:08:24;56.08;;;30.90;;
40691;SDS011;26377;53.344;14.886;2022-10-31T17:10:54;65.77;;;32.80;;
40691;SDS011;26377;53.344;14.886;2022-10-31T17:13:25;53.20;;;30.17;;
40691;SDS011;26377;53.344;14.886;2022-10-31T17:15:57;52.58;;;26.55;;